createdAt,value
2022-10-19T00:02:57.681Z,95.87
2022-10-19T00:08:01.662Z,95.91
2022-10-19T00:13:03.593Z,96.67
2022-10-19T00:18:05.287Z,96.83
2022-10-19T00:23:07.359Z,96.73
2022-10-19T00:28:09.402Z,96.92
2022-10-19T00:33:11.036Z,97.29
2022-10-19T00:38:12.723Z,97.61
2022-10-19T00:43:24.388Z,97.72
2022-10-19T00:48:31.265Z,97.67
2022-10-19T00:53:33.329Z,98.02
2022-10-19T00:58:35.514Z,98.07
2022-10-19T01:03:39.106Z,97.53
2022-10-19T01:08:40.939Z,97.58
2022-10-19T01:13:58.986Z,98.17
2022-10-19T01:19:24.857Z,98.10
2022-10-19T01:24:45.472Z,97.76
2022-10-19T01:29:59.239Z,97.67
2022-10-19T01:35:42.448Z,97.32
2022-10-19T01:40:56.077Z,97.55
2022-10-19T01:46:36.171Z,97.58
2022-10-19T01:51:42.926Z,97.36
2022-10-19T01:56:47.815Z,97.16
2022-10-19T02:01:52.534Z,96.10
2022-10-19T02:06:55.421Z,95.91
2022-10-19T02:11:59.745Z,96.03
2022-10-19T02:17:19.218Z,95.10
2022-10-19T02:22:21.947Z,94.99
2022-10-19T02:27:23.771Z,95.33
2022-10-19T02:32:26.749Z,94.36
2022-10-19T02:37:28.691Z,95.48
2022-10-19T02:42:43.953Z,96.10
2022-10-19T02:48:03.613Z,95.54
2022-10-19T02:53:05.304Z,96.53
2022-10-19T02:58:07.088Z,97.01
2022-10-19T03:03:09.672Z,96.57
2022-10-19T03:08:11.440Z,96.64
2022-10-19T03:13:13.161Z,96.45
2022-10-19T03:18:15.034Z,96.80
2022-10-19T03:23:16.910Z,96.86
2022-10-19T03:28:18.602Z,97.07
2022-10-19T03:33:20.525Z,97.28
2022-10-19T03:38:22.206Z,97.54
2022-10-19T03:43:24.003Z,97.78
2022-10-19T03:48:25.931Z,97.88
2022-10-19T03:53:28.014Z,98.11
2022-10-19T03:58:31.333Z,98.24
2022-10-19T04:03:33.026Z,98.44
2022-10-19T04:08:35.177Z,98.72
2022-10-19T04:13:37.230Z,98.13
2022-10-19T04:18:39.015Z,97.98
2022-10-19T04:23:40.776Z,98.40
2022-10-19T04:28:42.542Z,98.55
2022-10-19T04:38:46.522Z,99.48
2022-10-19T04:43:49.101Z,100.00
2022-10-19T04:48:51.772Z,100.00
2022-10-19T04:53:58.604Z,100.00
2022-10-19T04:59:01.634Z,100.00
2022-10-19T05:04:03.518Z,100.00
2022-10-19T05:09:05.265Z,100.00
2022-10-19T05:14:06.997Z,100.00
2022-10-19T05:19:13.076Z,100.00
2022-10-19T05:24:14.762Z,100.00
2022-10-19T05:29:16.424Z,100.00
2022-10-19T05:34:18.162Z,100.00
2022-10-19T05:39:19.822Z,100.00
2022-10-19T05:44:23.249Z,100.00
2022-10-19T05:49:24.914Z,100.00
2022-10-19T05:54:28.454Z,100.00
2022-10-19T05:59:31.014Z,100.00
2022-10-19T06:04:33.704Z,100.00
2022-10-19T06:09:36.512Z,100.00
2022-10-19T06:14:38.109Z,100.00
2022-10-19T06:19:39.863Z,100.00
2022-10-19T06:24:41.547Z,100.00
2022-10-19T06:29:43.200Z,100.00
2022-10-19T06:34:44.986Z,100.00
2022-10-19T06:39:46.756Z,100.00
2022-10-19T06:44:48.431Z,100.00
2022-10-19T06:49:50.129Z,100.00
2022-10-19T06:54:52.151Z,100.00
2022-10-19T06:59:54.108Z,100.00
2022-10-19T07:04:55.807Z,100.00
2022-10-19T07:09:57.572Z,100.00
2022-10-19T07:14:59.241Z,100.00
2022-10-19T07:20:01.302Z,100.00
2022-10-19T07:25:03.360Z,100.00
2022-10-19T07:30:05.936Z,100.00
2022-10-19T07:35:07.834Z,100.00
2022-10-19T07:40:10.130Z,100.00
2022-10-19T07:45:12.113Z,100.00
2022-10-19T07:50:13.881Z,100.00
2022-10-19T07:55:15.711Z,100.00
2022-10-19T08:00:17.634Z,100.00
2022-10-19T08:05:19.341Z,100.00
2022-10-19T08:10:21.069Z,100.00
2022-10-19T08:15:22.806Z,100.00
2022-10-19T08:20:24.782Z,100.00
2022-10-19T08:25:26.721Z,100.00
2022-10-19T08:30:28.393Z,100.00
2022-10-19T08:35:31.170Z,100.00
2022-10-19T08:40:33.022Z,100.00
2022-10-19T08:50:45.315Z,100.00
2022-10-19T08:56:55.582Z,100.00
2022-10-19T09:02:02.683Z,99.37
2022-10-19T09:07:31.034Z,98.56
2022-10-19T09:12:47.541Z,98.65
2022-10-19T09:17:49.298Z,98.79
2022-10-19T09:23:19.969Z,98.58
2022-10-19T09:28:45.285Z,98.29
2022-10-19T09:33:55.497Z,97.34
2022-10-19T09:38:57.146Z,96.87
2022-10-19T09:43:59.827Z,94.94
2022-10-19T09:49:04.135Z,94.75
2022-10-19T09:54:05.853Z,93.68
2022-10-19T09:59:22.066Z,92.87
2022-10-19T10:04:23.765Z,91.42
2022-10-19T10:09:28.529Z,90.27
2022-10-19T10:14:34.914Z,90.10
2022-10-19T10:19:37.291Z,88.95
2022-10-19T10:24:51.956Z,89.23
2022-10-19T10:35:07.791Z,87.78
2022-10-19T10:40:27.887Z,86.16
2022-10-19T10:46:04.020Z,86.17
2022-10-19T10:51:19.403Z,82.80
2022-10-19T10:56:29.562Z,81.94
2022-10-19T11:01:40.054Z,80.31
2022-10-19T11:06:52.647Z,78.54
2022-10-19T11:11:56.310Z,76.88
2022-10-19T11:17:03.828Z,75.42
2022-10-19T11:22:28.322Z,73.97
2022-10-19T11:27:48.964Z,73.80
2022-10-19T11:33:07.743Z,74.31
2022-10-19T11:38:21.382Z,73.06
2022-10-19T11:43:59.729Z,68.87
2022-10-19T11:49:22.480Z,69.36
2022-10-19T11:54:33.299Z,69.14
2022-10-19T12:00:14.788Z,66.96
2022-10-19T12:05:32.265Z,66.52
2022-10-19T12:10:44.076Z,66.35
2022-10-19T12:15:49.705Z,65.78
2022-10-19T12:20:56.199Z,67.11
2022-10-19T12:26:01.638Z,65.62
2022-10-19T12:31:05.543Z,65.09
2022-10-19T12:36:30.294Z,66.17
2022-10-19T12:41:40.998Z,66.21
2022-10-19T12:46:52.501Z,67.23
2022-10-19T12:51:56.216Z,68.05
2022-10-19T12:57:00.401Z,68.53
2022-10-19T13:02:06.361Z,67.36
2022-10-19T13:07:10.492Z,68.23
2022-10-19T13:12:21.544Z,68.27
2022-10-19T13:17:50.938Z,68.16
2022-10-19T13:23:03.405Z,67.82
2022-10-19T13:28:07.890Z,67.40
2022-10-19T13:33:34.931Z,67.82
2022-10-19T13:38:42.597Z,67.48
2022-10-19T13:44:06.621Z,66.80
2022-10-19T13:49:27.898Z,67.65
2022-10-19T13:54:34.708Z,67.55
2022-10-19T14:00:01.531Z,69.05
2022-10-19T14:05:30.373Z,69.71
2022-10-19T14:10:43.469Z,71.07
2022-10-19T14:15:57.534Z,71.76
2022-10-19T14:21:09.721Z,71.67
2022-10-19T14:26:16.590Z,70.81
2022-10-19T14:31:22.688Z,71.64
2022-10-19T14:36:31.322Z,71.81
2022-10-19T14:41:37.212Z,71.21
2022-10-19T14:46:39.152Z,71.42
2022-10-19T14:51:49.780Z,72.31
2022-10-19T14:56:51.656Z,72.60
2022-10-19T15:01:58.053Z,73.44
2022-10-19T15:07:03.429Z,73.41
2022-10-19T15:12:09.263Z,74.22
2022-10-19T15:17:31.559Z,74.24
2022-10-19T15:22:33.545Z,74.76
2022-10-19T15:27:41.899Z,75.19
2022-10-19T15:33:10.717Z,75.23
2022-10-19T15:38:20.000Z,75.28
2022-10-19T15:43:30.929Z,75.77
2022-10-19T15:48:41.802Z,75.90
2022-10-19T15:53:43.466Z,76.17
2022-10-19T15:58:49.365Z,76.63
2022-10-19T16:03:51.052Z,76.63
2022-10-19T16:08:54.080Z,76.84
2022-10-19T16:13:56.139Z,77.06
2022-10-19T16:19:00.708Z,77.18
2022-10-19T16:24:02.943Z,77.28
2022-10-19T16:29:04.738Z,77.45
2022-10-19T16:34:06.468Z,77.80
2022-10-19T16:39:08.467Z,78.16
2022-10-19T16:44:12.628Z,78.51
2022-10-19T16:49:14.388Z,78.55
2022-10-19T16:54:17.518Z,78.75
2022-10-19T16:59:19.361Z,78.38
2022-10-19T17:04:21.146Z,78.88
2022-10-19T17:14:48.722Z,79.97
2022-10-19T17:19:50.545Z,79.72
2022-10-19T17:24:55.474Z,80.56
2022-10-19T17:29:57.180Z,81.25
2022-10-19T17:34:58.862Z,81.04
2022-10-19T17:40:00.558Z,80.99
2022-10-19T17:45:02.369Z,81.85
2022-10-19T17:50:04.389Z,81.85
2022-10-19T17:55:11.998Z,82.41
2022-10-19T18:00:14.697Z,82.52
2022-10-19T18:05:17.283Z,82.49
2022-10-19T18:10:19.473Z,82.19
2022-10-19T18:15:21.266Z,82.68
2022-10-19T18:20:23.077Z,82.60
2022-10-19T18:25:42.293Z,82.59
2022-10-19T18:30:46.724Z,82.81
2022-10-19T18:35:49.663Z,82.35
2022-10-19T18:40:51.271Z,81.48
2022-10-19T18:45:54.313Z,82.40
2022-10-19T18:50:57.257Z,82.32
2022-10-19T18:56:03.271Z,83.02
2022-10-19T19:01:07.839Z,83.74
2022-10-19T19:06:12.746Z,83.75
2022-10-19T19:11:21.814Z,83.85
2022-10-19T19:16:24.296Z,84.11
2022-10-19T19:21:28.874Z,83.72
2022-10-19T19:26:33.072Z,83.49
2022-10-19T19:31:35.256Z,83.41
2022-10-19T19:41:43.651Z,83.74
2022-10-19T19:46:45.685Z,83.40
2022-10-19T19:51:49.119Z,82.29
2022-10-19T19:56:51.997Z,81.83
2022-10-19T20:01:53.635Z,81.58
2022-10-19T20:06:55.417Z,82.44
2022-10-19T20:11:57.209Z,83.05
2022-10-19T20:16:59.108Z,82.77
2022-10-19T20:22:01.541Z,83.28
2022-10-19T20:27:03.560Z,83.24
2022-10-19T20:32:05.294Z,83.33
2022-10-19T20:37:07.185Z,82.90
2022-10-19T20:42:08.960Z,82.27
2022-10-19T20:47:11.496Z,82.82
2022-10-19T20:52:13.171Z,83.07
2022-10-19T20:57:14.943Z,83.74
2022-10-19T21:02:16.629Z,83.88
2022-10-19T21:07:18.416Z,83.69
2022-10-19T21:12:20.209Z,82.57
2022-10-19T21:17:22.044Z,80.25
2022-10-19T21:22:23.743Z,81.24
2022-10-19T21:27:25.761Z,81.73
2022-10-19T21:32:27.509Z,82.22
2022-10-19T21:37:29.422Z,82.05
2022-10-19T21:42:31.224Z,81.89
2022-10-19T21:47:33.325Z,82.78
2022-10-19T21:52:35.416Z,83.46
2022-10-19T21:57:37.672Z,83.80
2022-10-19T22:02:39.588Z,83.85
2022-10-19T22:07:41.450Z,82.59
2022-10-19T22:12:43.186Z,83.59
2022-10-19T22:17:44.913Z,84.10
2022-10-19T22:22:49.169Z,83.57
2022-10-19T22:27:53.168Z,83.22
2022-10-19T22:32:55.760Z,83.50
2022-10-19T22:37:57.881Z,83.48
2022-10-19T22:43:01.462Z,84.97
2022-10-19T22:48:05.708Z,85.60
2022-10-19T22:53:07.605Z,86.21
2022-10-19T22:58:09.535Z,86.63
2022-10-19T23:03:11.454Z,86.92
2022-10-19T23:08:13.339Z,87.05
2022-10-19T23:13:15.519Z,87.24
2022-10-19T23:18:17.931Z,88.18
2022-10-19T23:23:19.724Z,88.82
2022-10-19T23:28:21.433Z,88.95
2022-10-19T23:33:23.750Z,89.18
2022-10-19T23:38:25.440Z,88.96
2022-10-19T23:43:27.428Z,89.47
2022-10-19T23:48:29.122Z,89.83
2022-10-19T23:53:35.689Z,90.37
2022-10-19T23:58:40.481Z,90.36
